sensor_id;sensor_type;location;lat;lon;timestamp;P1;durP1;ratioP1;P2;durP2;ratioP2
69419;SDS011;71621;52.030;113.516;2024-03-02T00:00:05;70.10;;;20.13;;
69419;SDS011;71621;52.030;113.516;2024-03-02T00:03:14;55.80;;;15.82;;
69419;SDS011;71621;52.030;113.516;2024-03-02T00:06:19;48.70;;;14.10;;
69419;SDS011;71621;52.030;113.516;2024-03-02T00:09:24;35.95;;;10.07;;
69419;SDS011;71621;52.030;113.516;2024-03-02T00:12:28;62.28;;;12.93;;
69419;SDS011;71621;52.030;113.516;2024-03-02T00:18:56;33.72;;;10.90;;
69419;SDS011;71621;52.030;113.516;2024-03-02T00:22:04;44.10;;;10.68;;
69419;SDS011;71621;52.030;113.516;2024-03-02T00:25:07;41.63;;;12.00;;
69419;SDS011;71621;52.030;113.516;2024-03-02T00:31:37;47.78;;;15.90;;
69419;SDS011;71621;52.030;113.516;2024-03-02T00:34:43;53.63;;;17.63;;
69419;SDS011;71621;52.030;113.516;2024-03-02T00:37:46;49.23;;;15.57;;
69419;SDS011;71621;52.030;113.516;2024-03-02T00:40:50;57.92;;;17.98;;
69419;SDS011;71621;52.030;113.516;2024-03-02T00:44:04;49.15;;;16.02;;
69419;SDS011;71621;52.030;113.516;2024-03-02T00:47:09;33.67;;;12.02;;
69419;SDS011;71621;52.030;113.516;2024-03-02T00:50:12;48.45;;;15.32;;
69419;SDS011;71621;52.030;113.516;2024-03-02T00:53:28;37.00;;;13.98;;
69419;SDS011;71621;52.030;113.516;2024-03-02T00:56:32;30.92;;;11.15;;
69419;SDS011;71621;52.030;113.516;2024-03-02T00:59:37;52.10;;;14.23;;
69419;SDS011;71621;52.030;113.516;2024-03-02T01:02:41;35.45;;;10.32;;
69419;SDS011;71621;52.030;113.516;2024-03-02T01:05:47;32.97;;;11.70;;
69419;SDS011;71621;52.030;113.516;2024-03-02T01:08:50;25.03;;;9.43;;
69419;SDS011;71621;52.030;113.516;2024-03-02T01:11:55;22.08;;;7.75;;
69419;SDS011;71621;52.030;113.516;2024-03-02T01:14:58;27.80;;;8.48;;
69419;SDS011;71621;52.030;113.516;2024-03-02T01:18:02;36.70;;;11.32;;
69419;SDS011;71621;52.030;113.516;2024-03-02T01:21:06;28.27;;;10.73;;
69419;SDS011;71621;52.030;113.516;2024-03-02T01:24:10;33.83;;;11.55;;
69419;SDS011;71621;52.030;113.516;2024-03-02T01:27:16;38.42;;;12.82;;
69419;SDS011;71621;52.030;113.516;2024-03-02T01:30:20;47.13;;;17.67;;
69419;SDS011;71621;52.030;113.516;2024-03-02T01:33:24;43.53;;;13.05;;
69419;SDS011;71621;52.030;113.516;2024-03-02T01:36:28;64.88;;;15.43;;
69419;SDS011;71621;52.030;113.516;2024-03-02T01:39:31;42.07;;;14.27;;
69419;SDS011;71621;52.030;113.516;2024-03-02T01:42:36;41.00;;;13.43;;
69419;SDS011;71621;52.030;113.516;2024-03-02T01:45:43;34.08;;;12.75;;
69419;SDS011;71621;52.030;113.516;2024-03-02T01:48:46;51.35;;;15.45;;
69419;SDS011;71621;52.030;113.516;2024-03-02T01:51:50;52.47;;;17.52;;
69419;SDS011;71621;52.030;113.516;2024-03-02T01:54:54;44.13;;;14.68;;
69419;SDS011;71621;52.030;113.516;2024-03-02T01:57:59;37.72;;;11.63;;
69419;SDS011;71621;52.030;113.516;2024-03-02T02:01:02;50.23;;;12.07;;
69419;SDS011;71621;52.030;113.516;2024-03-02T02:04:06;33.13;;;10.93;;
69419;SDS011;71621;52.030;113.516;2024-03-02T02:07:10;27.45;;;10.18;;
69419;SDS011;71621;52.030;113.516;2024-03-02T02:10:14;30.52;;;10.93;;
69419;SDS011;71621;52.030;113.516;2024-03-02T02:13:18;23.00;;;8.55;;
69419;SDS011;71621;52.030;113.516;2024-03-02T02:16:22;25.08;;;8.88;;
69419;SDS011;71621;52.030;113.516;2024-03-02T02:19:26;30.75;;;10.20;;
69419;SDS011;71621;52.030;113.516;2024-03-02T02:22:29;34.57;;;9.20;;
69419;SDS011;71621;52.030;113.516;2024-03-02T02:25:34;28.45;;;8.95;;
69419;SDS011;71621;52.030;113.516;2024-03-02T02:28:37;25.83;;;10.43;;
69419;SDS011;71621;52.030;113.516;2024-03-02T02:31:42;24.35;;;7.93;;
69419;SDS011;71621;52.030;113.516;2024-03-02T02:34:45;26.67;;;8.20;;
69419;SDS011;71621;52.030;113.516;2024-03-02T02:37:49;31.23;;;10.38;;
69419;SDS011;71621;52.030;113.516;2024-03-02T02:40:55;22.67;;;7.55;;
69419;SDS011;71621;52.030;113.516;2024-03-02T02:43:58;33.40;;;8.13;;
69419;SDS011;71621;52.030;113.516;2024-03-02T02:47:02;27.48;;;7.28;;
69419;SDS011;71621;52.030;113.516;2024-03-02T02:50:09;24.80;;;8.45;;
69419;SDS011;71621;52.030;113.516;2024-03-02T02:53:13;26.55;;;9.05;;
69419;SDS011;71621;52.030;113.516;2024-03-02T02:56:17;45.73;;;9.63;;
69419;SDS011;71621;52.030;113.516;2024-03-02T02:59:20;25.42;;;8.25;;
69419;SDS011;71621;52.030;113.516;2024-03-02T03:02:24;17.13;;;6.32;;
69419;SDS011;71621;52.030;113.516;2024-03-02T03:05:27;25.67;;;7.65;;
69419;SDS011;71621;52.030;113.516;2024-03-02T03:08:32;35.23;;;6.57;;
69419;SDS011;71621;52.030;113.516;2024-03-02T03:11:36;24.13;;;7.15;;
69419;SDS011;71621;52.030;113.516;2024-03-02T03:14:41;29.67;;;8.68;;
69419;SDS011;71621;52.030;113.516;2024-03-02T03:17:44;13.23;;;4.97;;
69419;SDS011;71621;52.030;113.516;2024-03-02T03:20:50;13.10;;;3.70;;
69419;SDS011;71621;52.030;113.516;2024-03-02T03:23:53;16.20;;;5.05;;
69419;SDS011;71621;52.030;113.516;2024-03-02T03:26:58;22.30;;;5.38;;
69419;SDS011;71621;52.030;113.516;2024-03-02T03:30:01;18.00;;;5.30;;
69419;SDS011;71621;52.030;113.516;2024-03-02T03:33:06;15.52;;;5.15;;
69419;SDS011;71621;52.030;113.516;2024-03-02T03:36:09;25.35;;;7.97;;
69419;SDS011;71621;52.030;113.516;2024-03-02T03:39:13;14.38;;;4.13;;
69419;SDS011;71621;52.030;113.516;2024-03-02T03:42:16;14.17;;;3.50;;
69419;SDS011;71621;52.030;113.516;2024-03-02T03:45:20;10.52;;;3.40;;
69419;SDS011;71621;52.030;113.516;2024-03-02T03:48:24;18.02;;;4.20;;
69419;SDS011;71621;52.030;113.516;2024-03-02T03:51:33;16.20;;;4.60;;
69419;SDS011;71621;52.030;113.516;2024-03-02T03:54:38;13.03;;;3.93;;
69419;SDS011;71621;52.030;113.516;2024-03-02T03:57:41;15.75;;;4.05;;
69419;SDS011;71621;52.030;113.516;2024-03-02T04:00:45;14.63;;;3.55;;
69419;SDS011;71621;52.030;113.516;2024-03-02T04:03:49;10.95;;;3.33;;
69419;SDS011;71621;52.030;113.516;2024-03-02T04:06:53;12.70;;;3.10;;
69419;SDS011;71621;52.030;113.516;2024-03-02T04:09:57;22.25;;;3.25;;
69419;SDS011;71621;52.030;113.516;2024-03-02T04:13:01;19.10;;;5.93;;
69419;SDS011;71621;52.030;113.516;2024-03-02T04:16:05;12.10;;;3.85;;
69419;SDS011;71621;52.030;113.516;2024-03-02T04:19:09;10.43;;;2.83;;
69419;SDS011;71621;52.030;113.516;2024-03-02T04:22:13;13.82;;;3.33;;
69419;SDS011;71621;52.030;113.516;2024-03-02T04:25:26;15.57;;;3.55;;
69419;SDS011;71621;52.030;113.516;2024-03-02T04:28:29;14.95;;;4.03;;
69419;SDS011;71621;52.030;113.516;2024-03-02T04:31:33;12.00;;;2.73;;
69419;SDS011;71621;52.030;113.516;2024-03-02T04:34:38;10.35;;;3.17;;
69419;SDS011;71621;52.030;113.516;2024-03-02T04:37:41;14.40;;;3.35;;
69419;SDS011;71621;52.030;113.516;2024-03-02T04:40:45;8.73;;;2.83;;
69419;SDS011;71621;52.030;113.516;2024-03-02T04:43:48;11.90;;;3.37;;
69419;SDS011;71621;52.030;113.516;2024-03-02T04:46:52;20.42;;;6.60;;
69419;SDS011;71621;52.030;113.516;2024-03-02T04:49:56;12.73;;;4.20;;
69419;SDS011;71621;52.030;113.516;2024-03-02T04:53:00;13.50;;;3.60;;
69419;SDS011;71621;52.030;113.516;2024-03-02T04:56:04;17.17;;;3.33;;
69419;SDS011;71621;52.030;113.516;2024-03-02T04:59:30;15.00;;;3.45;;
69419;SDS011;71621;52.030;113.516;2024-03-02T05:02:34;9.65;;;2.65;;
69419;SDS011;71621;52.030;113.516;2024-03-02T05:05:38;9.68;;;2.88;;
69419;SDS011;71621;52.030;113.516;2024-03-02T05:08:42;3.60;;;1.20;;
69419;SDS011;71621;52.030;113.516;2024-03-02T05:11:47;26.25;;;3.40;;
69419;SDS011;71621;52.030;113.516;2024-03-02T05:15:10;60.15;;;18.35;;
69419;SDS011;71621;52.030;113.516;2024-03-02T05:18:14;12.05;;;2.90;;
69419;SDS011;71621;52.030;113.516;2024-03-02T05:21:18;7.23;;;2.60;;
69419;SDS011;71621;52.030;113.516;2024-03-02T05:24:22;14.35;;;3.38;;
69419;SDS011;71621;52.030;113.516;2024-03-02T05:27:26;10.32;;;3.47;;
69419;SDS011;71621;52.030;113.516;2024-03-02T05:30:30;12.55;;;3.63;;
69419;SDS011;71621;52.030;113.516;2024-03-02T05:33:33;16.27;;;3.73;;
69419;SDS011;71621;52.030;113.516;2024-03-02T05:36:37;10.00;;;3.17;;
69419;SDS011;71621;52.030;113.516;2024-03-02T05:39:41;8.85;;;2.97;;
69419;SDS011;71621;52.030;113.516;2024-03-02T05:42:48;14.93;;;3.40;;
69419;SDS011;71621;52.030;113.516;2024-03-02T05:45:52;21.58;;;5.10;;
69419;SDS011;71621;52.030;113.516;2024-03-02T05:48:56;13.65;;;2.92;;
69419;SDS011;71621;52.030;113.516;2024-03-02T05:51:59;8.23;;;2.60;;
69419;SDS011;71621;52.030;113.516;2024-03-02T05:55:03;18.58;;;3.30;;
69419;SDS011;71621;52.030;113.516;2024-03-02T05:58:07;11.40;;;3.63;;
69419;SDS011;71621;52.030;113.516;2024-03-02T06:01:29;10.80;;;4.28;;
69419;SDS011;71621;52.030;113.516;2024-03-02T06:04:34;11.35;;;3.53;;
69419;SDS011;71621;52.030;113.516;2024-03-02T06:07:39;11.25;;;3.75;;
69419;SDS011;71621;52.030;113.516;2024-03-02T06:10:43;14.67;;;3.20;;
69419;SDS011;71621;52.030;113.516;2024-03-02T06:13:46;8.82;;;3.00;;
69419;SDS011;71621;52.030;113.516;2024-03-02T06:16:50;8.43;;;2.65;;
69419;SDS011;71621;52.030;113.516;2024-03-02T06:19:54;7.57;;;2.72;;
69419;SDS011;71621;52.030;113.516;2024-03-02T06:22:57;7.27;;;2.63;;
69419;SDS011;71621;52.030;113.516;2024-03-02T06:26:01;37.00;;;11.73;;
69419;SDS011;71621;52.030;113.516;2024-03-02T06:29:05;12.57;;;3.80;;
69419;SDS011;71621;52.030;113.516;2024-03-02T06:32:09;10.40;;;3.70;;
69419;SDS011;71621;52.030;113.516;2024-03-02T06:35:12;7.18;;;2.40;;
69419;SDS011;71621;52.030;113.516;2024-03-02T06:38:16;15.23;;;5.28;;
69419;SDS011;71621;52.030;113.516;2024-03-02T06:41:19;11.90;;;3.75;;
69419;SDS011;71621;52.030;113.516;2024-03-02T06:44:23;8.10;;;2.28;;
69419;SDS011;71621;52.030;113.516;2024-03-02T06:47:27;13.65;;;2.95;;
69419;SDS011;71621;52.030;113.516;2024-03-02T06:50:31;12.17;;;3.07;;
69419;SDS011;71621;52.030;113.516;2024-03-02T06:53:34;12.80;;;3.03;;
69419;SDS011;71621;52.030;113.516;2024-03-02T06:56:39;17.08;;;6.97;;
69419;SDS011;71621;52.030;113.516;2024-03-02T06:59:43;14.75;;;3.92;;
69419;SDS011;71621;52.030;113.516;2024-03-02T07:02:47;7.72;;;3.08;;
69419;SDS011;71621;52.030;113.516;2024-03-02T07:05:50;10.88;;;2.50;;
69419;SDS011;71621;52.030;113.516;2024-03-02T07:08:54;10.43;;;3.10;;
69419;SDS011;71621;52.030;113.516;2024-03-02T07:11:57;15.10;;;3.47;;
69419;SDS011;71621;52.030;113.516;2024-03-02T07:15:02;14.20;;;3.57;;
69419;SDS011;71621;52.030;113.516;2024-03-02T07:18:06;26.38;;;8.15;;
69419;SDS011;71621;52.030;113.516;2024-03-02T07:21:10;46.45;;;11.80;;
69419;SDS011;71621;52.030;113.516;2024-03-02T07:24:13;12.55;;;3.58;;
69419;SDS011;71621;52.030;113.516;2024-03-02T07:27:19;26.83;;;6.30;;
69419;SDS011;71621;52.030;113.516;2024-03-02T07:30:23;46.53;;;9.95;;
69419;SDS011;71621;52.030;113.516;2024-03-02T07:33:27;35.75;;;9.95;;
69419;SDS011;71621;52.030;113.516;2024-03-02T07:36:30;19.73;;;6.35;;
69419;SDS011;71621;52.030;113.516;2024-03-02T07:39:35;20.35;;;6.05;;
69419;SDS011;71621;52.030;113.516;2024-03-02T07:42:39;17.77;;;6.57;;
69419;SDS011;71621;52.030;113.516;2024-03-02T07:45:43;14.88;;;4.68;;
69419;SDS011;71621;52.030;113.516;2024-03-02T07:48:47;14.88;;;5.13;;
69419;SDS011;71621;52.030;113.516;2024-03-02T07:51:51;14.70;;;4.35;;
69419;SDS011;71621;52.030;113.516;2024-03-02T07:54:55;12.45;;;3.80;;
69419;SDS011;71621;52.030;113.516;2024-03-02T07:58:00;9.57;;;3.47;;
69419;SDS011;71621;52.030;113.516;2024-03-02T08:01:04;15.55;;;5.30;;
69419;SDS011;71621;52.030;113.516;2024-03-02T08:04:08;16.42;;;4.68;;
69419;SDS011;71621;52.030;113.516;2024-03-02T08:07:12;10.55;;;3.92;;
69419;SDS011;71621;52.030;113.516;2024-03-02T08:10:15;14.10;;;4.60;;
69419;SDS011;71621;52.030;113.516;2024-03-02T08:13:19;21.25;;;5.03;;
69419;SDS011;71621;52.030;113.516;2024-03-02T08:16:23;24.83;;;6.03;;
69419;SDS011;71621;52.030;113.516;2024-03-02T08:19:28;13.02;;;4.40;;
69419;SDS011;71621;52.030;113.516;2024-03-02T08:22:32;28.73;;;9.10;;
69419;SDS011;71621;52.030;113.516;2024-03-02T08:25:35;20.87;;;5.87;;
69419;SDS011;71621;52.030;113.516;2024-03-02T08:28:41;22.88;;;6.25;;
69419;SDS011;71621;52.030;113.516;2024-03-02T08:31:44;10.35;;;3.22;;
69419;SDS011;71621;52.030;113.516;2024-03-02T08:34:48;14.75;;;4.82;;
69419;SDS011;71621;52.030;113.516;2024-03-02T08:37:52;8.20;;;2.50;;
69419;SDS011;71621;52.030;113.516;2024-03-02T08:40:56;11.45;;;4.63;;
69419;SDS011;71621;52.030;113.516;2024-03-02T08:44:00;18.20;;;6.60;;
69419;SDS011;71621;52.030;113.516;2024-03-02T08:47:03;23.17;;;6.07;;
69419;SDS011;71621;52.030;113.516;2024-03-02T08:50:07;18.35;;;5.60;;
69419;SDS011;71621;52.030;113.516;2024-03-02T08:53:12;25.60;;;9.03;;
69419;SDS011;71621;52.030;113.516;2024-03-02T08:56:16;15.82;;;5.13;;
69419;SDS011;71621;52.030;113.516;2024-03-02T08:59:20;11.63;;;4.70;;
69419;SDS011;71621;52.030;113.516;2024-03-02T09:02:24;21.77;;;6.88;;
69419;SDS011;71621;52.030;113.516;2024-03-02T09:05:27;24.53;;;6.77;;
69419;SDS011;71621;52.030;113.516;2024-03-02T09:08:31;18.70;;;5.35;;
69419;SDS011;71621;52.030;113.516;2024-03-02T09:11:34;13.90;;;5.43;;
69419;SDS011;71621;52.030;113.516;2024-03-02T09:14:40;19.40;;;5.05;;
69419;SDS011;71621;52.030;113.516;2024-03-02T09:17:44;25.55;;;8.52;;
69419;SDS011;71621;52.030;113.516;2024-03-02T09:20:47;28.77;;;11.30;;
69419;SDS011;71621;52.030;113.516;2024-03-02T09:23:51;16.20;;;6.63;;
69419;SDS011;71621;52.030;113.516;2024-03-02T09:26:55;21.08;;;7.00;;
69419;SDS011;71621;52.030;113.516;2024-03-02T09:29:59;18.17;;;4.90;;
69419;SDS011;71621;52.030;113.516;2024-03-02T09:33:02;22.57;;;5.80;;
69419;SDS011;71621;52.030;113.516;2024-03-02T09:36:19;16.85;;;4.65;;
69419;SDS011;71621;52.030;113.516;2024-03-02T09:39:24;17.75;;;5.65;;
69419;SDS011;71621;52.030;113.516;2024-03-02T09:42:30;24.63;;;6.68;;
69419;SDS011;71621;52.030;113.516;2024-03-02T09:45:35;36.15;;;10.23;;
69419;SDS011;71621;52.030;113.516;2024-03-02T09:48:39;22.73;;;7.90;;
69419;SDS011;71621;52.030;113.516;2024-03-02T09:51:47;19.42;;;6.28;;
69419;SDS011;71621;52.030;113.516;2024-03-02T09:54:54;25.88;;;9.38;;
69419;SDS011;71621;52.030;113.516;2024-03-02T09:57:58;28.60;;;9.50;;
69419;SDS011;71621;52.030;113.516;2024-03-02T10:01:01;43.22;;;14.40;;
69419;SDS011;71621;52.030;113.516;2024-03-02T10:04:10;35.93;;;11.23;;
69419;SDS011;71621;52.030;113.516;2024-03-02T10:07:16;25.52;;;8.18;;
69419;SDS011;71621;52.030;113.516;2024-03-02T10:10:21;28.20;;;8.27;;
69419;SDS011;71621;52.030;113.516;2024-03-02T10:13:25;24.13;;;6.68;;
69419;SDS011;71621;52.030;113.516;2024-03-02T10:16:29;26.75;;;7.95;;
69419;SDS011;71621;52.030;113.516;2024-03-02T10:19:33;35.20;;;11.30;;
69419;SDS011;71621;52.030;113.516;2024-03-02T10:22:40;38.17;;;12.00;;
69419;SDS011;71621;52.030;113.516;2024-03-02T10:25:44;71.28;;;21.65;;
69419;SDS011;71621;52.030;113.516;2024-03-02T10:28:59;43.95;;;14.07;;
69419;SDS011;71621;52.030;113.516;2024-03-02T10:32:03;35.57;;;10.70;;
69419;SDS011;71621;52.030;113.516;2024-03-02T10:35:07;35.47;;;14.57;;
69419;SDS011;71621;52.030;113.516;2024-03-02T10:38:11;30.33;;;10.75;;
69419;SDS011;71621;52.030;113.516;2024-03-02T10:41:18;49.38;;;13.07;;
69419;SDS011;71621;52.030;113.516;2024-03-02T10:44:23;58.33;;;22.73;;
69419;SDS011;71621;52.030;113.516;2024-03-02T10:47:28;60.67;;;20.42;;
69419;SDS011;71621;52.030;113.516;2024-03-02T10:50:34;89.78;;;27.27;;
69419;SDS011;71621;52.030;113.516;2024-03-02T10:53:38;103.10;;;32.05;;
69419;SDS011;71621;52.030;113.516;2024-03-02T10:56:43;175.40;;;60.20;;
69419;SDS011;71621;52.030;113.516;2024-03-02T10:59:53;106.13;;;34.95;;
69419;SDS011;71621;52.030;113.516;2024-03-02T11:03:06;309.35;;;97.18;;
69419;SDS011;71621;52.030;113.516;2024-03-02T11:06:13;184.25;;;66.25;;
69419;SDS011;71621;52.030;113.516;2024-03-02T11:09:21;201.20;;;58.03;;
69419;SDS011;71621;52.030;113.516;2024-03-02T11:12:29;215.68;;;63.05;;
69419;SDS011;71621;52.030;113.516;2024-03-02T11:15:37;266.02;;;79.50;;
69419;SDS011;71621;52.030;113.516;2024-03-02T11:18:43;208.48;;;64.50;;
69419;SDS011;71621;52.030;113.516;2024-03-02T11:25:27;61.95;;;20.33;;
69419;SDS011;71621;52.030;113.516;2024-03-02T11:28:34;274.58;;;77.57;;
69419;SDS011;71621;52.030;113.516;2024-03-02T11:31:57;125.60;;;39.83;;
69419;SDS011;71621;52.030;113.516;2024-03-02T11:35:04;259.40;;;74.60;;
69419;SDS011;71621;52.030;113.516;2024-03-02T11:38:10;199.57;;;55.80;;
69419;SDS011;71621;52.030;113.516;2024-03-02T11:41:14;171.07;;;55.80;;
69419;SDS011;71621;52.030;113.516;2024-03-02T11:44:17;610.28;;;246.88;;
69419;SDS011;71621;52.030;113.516;2024-03-02T11:47:22;244.82;;;87.00;;
69419;SDS011;71621;52.030;113.516;2024-03-02T11:50:42;249.30;;;86.57;;
69419;SDS011;71621;52.030;113.516;2024-03-02T11:53:50;246.07;;;91.05;;
69419;SDS011;71621;52.030;113.516;2024-03-02T11:56:57;137.82;;;49.72;;
69419;SDS011;71621;52.030;113.516;2024-03-02T12:00:03;134.82;;;43.90;;
69419;SDS011;71621;52.030;113.516;2024-03-02T12:03:09;78.70;;;34.60;;
69419;SDS011;71621;52.030;113.516;2024-03-02T12:06:15;105.90;;;36.63;;
69419;SDS011;71621;52.030;113.516;2024-03-02T12:09:20;50.70;;;18.75;;
69419;SDS011;71621;52.030;113.516;2024-03-02T12:12:24;51.15;;;19.40;;
69419;SDS011;71621;52.030;113.516;2024-03-02T12:15:30;55.83;;;20.45;;
69419;SDS011;71621;52.030;113.516;2024-03-02T12:18:35;61.20;;;18.25;;
69419;SDS011;71621;52.030;113.516;2024-03-02T12:21:39;44.40;;;16.70;;
69419;SDS011;71621;52.030;113.516;2024-03-02T12:24:43;51.73;;;16.77;;
69419;SDS011;71621;52.030;113.516;2024-03-02T12:27:52;72.25;;;19.73;;
69419;SDS011;71621;52.030;113.516;2024-03-02T12:31:00;52.35;;;18.48;;
69419;SDS011;71621;52.030;113.516;2024-03-02T12:34:04;50.63;;;15.10;;
69419;SDS011;71621;52.030;113.516;2024-03-02T12:37:08;40.40;;;14.07;;
69419;SDS011;71621;52.030;113.516;2024-03-02T12:40:17;47.90;;;15.48;;
69419;SDS011;71621;52.030;113.516;2024-03-02T12:43:22;56.30;;;15.98;;
69419;SDS011;71621;52.030;113.516;2024-03-02T12:46:26;47.42;;;14.40;;
69419;SDS011;71621;52.030;113.516;2024-03-02T12:49:30;68.50;;;22.17;;
69419;SDS011;71621;52.030;113.516;2024-03-02T12:52:35;82.35;;;27.02;;
69419;SDS011;71621;52.030;113.516;2024-03-02T12:55:39;58.58;;;19.13;;
69419;SDS011;71621;52.030;113.516;2024-03-02T12:58:42;56.97;;;17.15;;
69419;SDS011;71621;52.030;113.516;2024-03-02T13:01:52;69.30;;;24.07;;
69419;SDS011;71621;52.030;113.516;2024-03-02T13:04:58;45.40;;;15.30;;
69419;SDS011;71621;52.030;113.516;2024-03-02T13:08:01;107.97;;;30.25;;
69419;SDS011;71621;52.030;113.516;2024-03-02T13:11:07;76.63;;;25.65;;
69419;SDS011;71621;52.030;113.516;2024-03-02T13:14:11;91.53;;;26.80;;
69419;SDS011;71621;52.030;113.516;2024-03-02T13:17:15;87.57;;;26.30;;
69419;SDS011;71621;52.030;113.516;2024-03-02T13:20:18;75.45;;;25.15;;
69419;SDS011;71621;52.030;113.516;2024-03-02T13:23:25;81.07;;;24.35;;
69419;SDS011;71621;52.030;113.516;2024-03-02T13:26:28;67.33;;;21.97;;
69419;SDS011;71621;52.030;113.516;2024-03-02T13:29:32;87.38;;;28.90;;
69419;SDS011;71621;52.030;113.516;2024-03-02T13:32:36;123.68;;;31.08;;
69419;SDS011;71621;52.030;113.516;2024-03-02T13:35:40;108.65;;;33.15;;
69419;SDS011;71621;52.030;113.516;2024-03-02T13:38:43;67.47;;;20.40;;
69419;SDS011;71621;52.030;113.516;2024-03-02T13:41:48;50.75;;;18.25;;
69419;SDS011;71621;52.030;113.516;2024-03-02T13:44:56;76.90;;;23.63;;
69419;SDS011;71621;52.030;113.516;2024-03-02T13:48:00;163.35;;;49.33;;
69419;SDS011;71621;52.030;113.516;2024-03-02T13:51:05;150.60;;;46.73;;
69419;SDS011;71621;52.030;113.516;2024-03-02T13:54:10;129.27;;;39.63;;
69419;SDS011;71621;52.030;113.516;2024-03-02T13:57:13;89.13;;;31.35;;
69419;SDS011;71621;52.030;113.516;2024-03-02T14:00:17;87.75;;;26.60;;
69419;SDS011;71621;52.030;113.516;2024-03-02T14:03:22;85.53;;;28.17;;
69419;SDS011;71621;52.030;113.516;2024-03-02T14:06:27;56.15;;;18.98;;
69419;SDS011;71621;52.030;113.516;2024-03-02T14:09:30;70.78;;;21.67;;
69419;SDS011;71621;52.030;113.516;2024-03-02T14:12:34;78.15;;;21.40;;
69419;SDS011;71621;52.030;113.516;2024-03-02T14:15:38;49.42;;;15.07;;
69419;SDS011;71621;52.030;113.516;2024-03-02T14:18:42;41.10;;;12.68;;
69419;SDS011;71621;52.030;113.516;2024-03-02T14:21:45;50.75;;;15.30;;
69419;SDS011;71621;52.030;113.516;2024-03-02T14:24:50;53.50;;;15.60;;
69419;SDS011;71621;52.030;113.516;2024-03-02T14:27:54;53.63;;;17.67;;
69419;SDS011;71621;52.030;113.516;2024-03-02T14:31:17;51.45;;;16.40;;
69419;SDS011;71621;52.030;113.516;2024-03-02T14:34:22;65.15;;;19.08;;
69419;SDS011;71621;52.030;113.516;2024-03-02T14:37:26;49.47;;;17.60;;
69419;SDS011;71621;52.030;113.516;2024-03-02T14:40:30;74.47;;;21.10;;
69419;SDS011;71621;52.030;113.516;2024-03-02T14:43:34;68.97;;;25.35;;
69419;SDS011;71621;52.030;113.516;2024-03-02T14:46:39;103.65;;;34.70;;
69419;SDS011;71621;52.030;113.516;2024-03-02T14:49:45;47.53;;;13.48;;
69419;SDS011;71621;52.030;113.516;2024-03-02T14:52:49;54.58;;;21.05;;
69419;SDS011;71621;52.030;113.516;2024-03-02T14:55:53;96.60;;;29.35;;
69419;SDS011;71621;52.030;113.516;2024-03-02T14:58:58;111.10;;;32.63;;
69419;SDS011;71621;52.030;113.516;2024-03-02T15:02:05;64.07;;;19.00;;
69419;SDS011;71621;52.030;113.516;2024-03-02T15:05:10;101.93;;;29.88;;
69419;SDS011;71621;52.030;113.516;2024-03-02T15:08:14;94.20;;;28.20;;
69419;SDS011;71621;52.030;113.516;2024-03-02T15:11:18;124.07;;;32.97;;
69419;SDS011;71621;52.030;113.516;2024-03-02T15:14:22;57.90;;;21.45;;
69419;SDS011;71621;52.030;113.516;2024-03-02T15:17:26;145.73;;;39.30;;
69419;SDS011;71621;52.030;113.516;2024-03-02T15:20:29;127.47;;;41.80;;
69419;SDS011;71621;52.030;113.516;2024-03-02T15:23:33;129.25;;;38.10;;
69419;SDS011;71621;52.030;113.516;2024-03-02T15:26:36;130.60;;;36.83;;
69419;SDS011;71621;52.030;113.516;2024-03-02T15:29:40;113.82;;;33.60;;
69419;SDS011;71621;52.030;113.516;2024-03-02T15:32:44;95.63;;;29.17;;
69419;SDS011;71621;52.030;113.516;2024-03-02T15:35:48;100.70;;;32.50;;
69419;SDS011;71621;52.030;113.516;2024-03-02T15:38:51;121.10;;;33.33;;
69419;SDS011;71621;52.030;113.516;2024-03-02T15:41:55;104.90;;;30.23;;
69419;SDS011;71621;52.030;113.516;2024-03-02T15:44:58;109.57;;;28.75;;
69419;SDS011;71621;52.030;113.516;2024-03-02T15:48:02;100.90;;;25.92;;
69419;SDS011;71621;52.030;113.516;2024-03-02T15:51:06;97.25;;;26.50;;
69419;SDS011;71621;52.030;113.516;2024-03-02T15:54:11;96.67;;;27.17;;
69419;SDS011;71621;52.030;113.516;2024-03-02T15:57:15;84.15;;;27.13;;
69419;SDS011;71621;52.030;113.516;2024-03-02T16:00:19;93.43;;;24.80;;
69419;SDS011;71621;52.030;113.516;2024-03-02T16:03:25;67.90;;;27.77;;
69419;SDS011;71621;52.030;113.516;2024-03-02T16:06:29;64.18;;;21.48;;
69419;SDS011;71621;52.030;113.516;2024-03-02T16:09:32;61.53;;;20.20;;
69419;SDS011;71621;52.030;113.516;2024-03-02T16:12:36;60.88;;;19.85;;
69419;SDS011;71621;52.030;113.516;2024-03-02T16:15:40;80.55;;;24.92;;
69419;SDS011;71621;52.030;113.516;2024-03-02T16:18:44;88.07;;;27.52;;
69419;SDS011;71621;52.030;113.516;2024-03-02T16:21:48;79.90;;;22.52;;
69419;SDS011;71621;52.030;113.516;2024-03-02T16:24:51;61.33;;;18.57;;
69419;SDS011;71621;52.030;113.516;2024-03-02T16:27:56;58.20;;;20.70;;
69419;SDS011;71621;52.030;113.516;2024-03-02T16:31:00;43.97;;;13.80;;
69419;SDS011;71621;52.030;113.516;2024-03-02T16:34:04;44.80;;;13.17;;
69419;SDS011;71621;52.030;113.516;2024-03-02T16:37:07;75.45;;;21.63;;
69419;SDS011;71621;52.030;113.516;2024-03-02T16:40:12;118.85;;;31.48;;
69419;SDS011;71621;52.030;113.516;2024-03-02T16:43:18;173.63;;;52.95;;
69419;SDS011;71621;52.030;113.516;2024-03-02T16:46:22;174.75;;;51.58;;
69419;SDS011;71621;52.030;113.516;2024-03-02T16:49:25;141.18;;;42.28;;
69419;SDS011;71621;52.030;113.516;2024-03-02T16:52:29;157.57;;;46.47;;
69419;SDS011;71621;52.030;113.516;2024-03-02T16:55:33;147.13;;;45.23;;
69419;SDS011;71621;52.030;113.516;2024-03-02T16:58:36;165.85;;;43.25;;
69419;SDS011;71621;52.030;113.516;2024-03-02T17:01:40;131.88;;;40.90;;
69419;SDS011;71621;52.030;113.516;2024-03-02T17:04:44;59.33;;;17.67;;
69419;SDS011;71621;52.030;113.516;2024-03-02T17:07:48;75.70;;;25.52;;
69419;SDS011;71621;52.030;113.516;2024-03-02T17:10:52;126.07;;;37.63;;
69419;SDS011;71621;52.030;113.516;2024-03-02T17:13:56;99.32;;;29.70;;
69419;SDS011;71621;52.030;113.516;2024-03-02T17:17:00;69.70;;;21.88;;
69419;SDS011;71621;52.030;113.516;2024-03-02T17:20:04;78.78;;;21.48;;
69419;SDS011;71621;52.030;113.516;2024-03-02T17:23:11;85.45;;;21.67;;
69419;SDS011;71621;52.030;113.516;2024-03-02T17:26:16;63.20;;;17.90;;
69419;SDS011;71621;52.030;113.516;2024-03-02T17:29:20;66.28;;;17.48;;
69419;SDS011;71621;52.030;113.516;2024-03-02T17:32:23;58.35;;;16.42;;
69419;SDS011;71621;52.030;113.516;2024-03-02T17:35:27;87.00;;;23.70;;
69419;SDS011;71621;52.030;113.516;2024-03-02T17:38:34;250.48;;;72.28;;
69419;SDS011;71621;52.030;113.516;2024-03-02T17:41:38;239.18;;;65.07;;
69419;SDS011;71621;52.030;113.516;2024-03-02T17:44:42;345.13;;;95.45;;